Time;durP1;ratioP1;P1;durP2;ratioP2;P2;SDS_P1;SDS_P2;PMS_P1;PMS_P2;Temp;Humidity;BMP_temperature;BMP_pressure;BME280_temperature;BME280_humidity;BME280_pressure;Samples;Min_cycle;Max_cycle;Signal;HPM_P1;HPM_P2
2023/09/30 00:01:44;;;;;;;25.33;8.00;;;11.50;99.90;;;;;;4970176;28;20139;-73
2023/09/30 00:04:10;;;;;;;22.58;7.18;;;11.50;99.90;;;;;;4982739;28;20034;-73
2023/09/30 00:06:36;;;;;;;23.48;8.45;;;11.60;99.90;;;;;;4978450;28;20034;-73
2023/09/30 00:09:03;;;;;;;30.88;8.77;;;11.50;99.90;;;;;;4965371;28;20456;-73
2023/09/30 00:11:28;;;;;;;23.88;8.70;;;11.50;99.90;;;;;;4979646;28;20480;-73
2023/09/30 00:13:54;;;;;;;24.50;9.50;;;11.50;99.90;;;;;;4999037;28;20069;-73
2023/09/30 00:16:20;;;;;;;23.10;8.32;;;11.50;99.90;;;;;;4978462;28;20038;-74
2023/09/30 00:18:46;;;;;;;20.30;8.63;;;11.50;99.90;;;;;;5002349;28;20034;-73
2023/09/30 00:21:12;;;;;;;23.23;7.97;;;11.50;99.90;;;;;;4987704;28;20045;-74
2023/09/30 00:23:37;;;;;;;19.23;8.00;;;11.50;99.90;;;;;;4983600;28;20042;-73
2023/09/30 00:26:03;;;;;;;26.33;8.75;;;11.50;99.90;;;;;;4986813;28;20073;-73
2023/09/30 00:28:29;;;;;;;25.45;8.80;;;11.50;99.90;;;;;;5000022;28;20054;-74
2023/09/30 00:30:55;;;;;;;22.80;7.80;;;11.50;99.90;;;;;;4984200;28;20404;-74
2023/09/30 00:33:20;;;;;;;23.55;7.82;;;11.50;99.90;;;;;;4964902;28;20045;-73
2023/09/30 00:35:46;;;;;;;19.40;7.45;;;11.50;99.90;;;;;;4987986;28;20035;-74
2023/09/30 00:38:12;;;;;;;19.38;7.95;;;11.50;99.90;;;;;;5003170;28;20046;-73
2023/09/30 00:40:38;;;;;;;20.45;7.85;;;11.40;99.90;;;;;;4984389;28;20042;-73
2023/09/30 00:43:04;;;;;;;17.67;8.23;;;11.40;99.90;;;;;;5006320;28;20103;-73
2023/09/30 00:45:30;;;;;;;24.58;8.25;;;11.40;99.90;;;;;;5004356;28;20469;-73
2023/09/30 00:47:56;;;;;;;16.67;7.22;;;11.40;99.90;;;;;;4990245;28;20038;-73
2023/09/30 00:50:22;;;;;;;24.60;7.82;;;11.40;99.90;;;;;;4999151;28;20049;-73
2023/09/30 00:52:49;;;;;;;22.83;7.68;;;11.40;99.90;;;;;;4996234;28;20095;-73
2023/09/30 00:55:16;;;;;;;19.13;7.80;;;11.40;99.90;;;;;;4992637;28;20044;-73
2023/09/30 00:57:44;;;;;;;19.67;8.10;;;11.40;99.90;;;;;;5008629;28;20125;-73
2023/09/30 01:00:11;;;;;;;21.98;7.45;;;11.40;99.90;;;;;;5004323;28;20113;-74
2023/09/30 01:02:41;;;;;;;20.15;6.78;;;11.40;99.90;;;;;;5003549;28;20050;-73
2023/09/30 01:05:08;;;;;;;18.10;7.50;;;11.40;99.90;;;;;;4992442;28;20487;-73
2023/09/30 01:07:34;;;;;;;21.02;8.38;;;11.40;99.90;;;;;;5001801;28;20075;-73
2023/09/30 01:10:01;;;;;;;23.48;8.15;;;11.40;99.90;;;;;;4997218;28;20046;-73
2023/09/30 01:12:27;;;;;;;17.88;8.10;;;11.40;99.90;;;;;;5006544;28;20037;-73
2023/09/30 01:14:59;;;;;;;21.48;8.02;;;11.40;99.90;;;;;;4985624;28;20045;-74
2023/09/30 01:17:25;;;;;;;23.30;8.27;;;11.40;99.90;;;;;;4996719;28;20042;-73
2023/09/30 01:19:52;;;;;;;17.23;7.28;;;11.40;99.90;;;;;;5005600;28;20054;-74
2023/09/30 01:22:17;;;;;;;23.23;8.05;;;11.40;99.90;;;;;;5007699;28;20488;-74
2023/09/30 01:24:44;;;;;;;17.65;8.15;;;11.40;99.90;;;;;;4994754;28;20064;-74
2023/09/30 01:27:09;;;;;;;20.52;7.07;;;11.40;99.90;;;;;;5000573;28;20039;-73
2023/09/30 01:29:38;;;;;;;23.63;8.10;;;11.40;99.90;;;;;;4985727;28;20508;-74
2023/09/30 01:32:08;;;;;;;21.13;7.90;;;11.40;99.90;;;;;;5002052;28;20501;-73
2023/09/30 01:34:34;;;;;;;22.90;7.55;;;11.40;99.90;;;;;;5006939;28;20045;-74
2023/09/30 01:37:00;;;;;;;20.33;8.18;;;11.40;99.90;;;;;;4985979;28;20038;-74
2023/09/30 01:39:25;;;;;;;21.33;7.50;;;11.40;99.90;;;;;;4973245;28;20038;-73
2023/09/30 01:41:51;;;;;;;21.80;7.68;;;11.40;99.90;;;;;;4995182;28;20408;-73
2023/09/30 01:44:17;;;;;;;21.83;8.02;;;11.40;99.90;;;;;;4981092;28;20064;-74
2023/09/30 01:46:43;;;;;;;21.52;7.43;;;11.40;99.90;;;;;;5000215;28;20116;-74
2023/09/30 01:49:09;;;;;;;16.38;7.05;;;11.40;99.90;;;;;;4985435;28;20490;-74
2023/09/30 01:51:35;;;;;;;22.73;7.90;;;11.40;99.90;;;;;;5003424;28;20044;-73
2023/09/30 01:54:01;;;;;;;16.20;7.45;;;11.40;99.90;;;;;;4981222;28;20042;-73
2023/09/30 01:56:26;;;;;;;17.92;7.38;;;11.40;99.90;;;;;;4999588;28;20523;-73
2023/09/30 01:58:52;;;;;;;20.23;7.65;;;11.30;99.90;;;;;;4970835;28;20054;-74
2023/09/30 02:01:18;;;;;;;16.98;7.50;;;11.30;99.90;;;;;;4988187;28;20504;-73
2023/09/30 02:03:43;;;;;;;21.95;7.82;;;11.30;99.90;;;;;;4984187;28;20034;-74
2023/09/30 02:06:10;;;;;;;22.73;8.45;;;11.30;99.90;;;;;;4998901;28;20441;-73
2023/09/30 02:08:36;;;;;;;22.55;8.07;;;11.30;99.90;;;;;;4986189;28;20130;-73
2023/09/30 02:11:02;;;;;;;26.17;8.35;;;11.30;99.90;;;;;;4985195;28;20052;-73
2023/09/30 02:13:28;;;;;;;18.50;7.50;;;11.30;99.90;;;;;;5006492;28;20408;-73
2023/09/30 02:15:55;;;;;;;20.90;8.38;;;11.30;99.90;;;;;;4987294;28;20034;-73
2023/09/30 02:18:23;;;;;;;21.63;7.93;;;11.30;99.90;;;;;;4974382;28;20034;-74
2023/09/30 02:20:50;;;;;;;21.13;7.93;;;11.30;99.90;;;;;;4999529;28;20041;-74
2023/09/30 02:23:17;;;;;;;19.95;7.72;;;11.30;99.90;;;;;;4996484;28;20113;-73
2023/09/30 02:25:43;;;;;;;22.73;8.30;;;11.30;99.90;;;;;;4967289;28;20034;-73
2023/09/30 02:28:09;;;;;;;22.02;7.70;;;11.20;99.90;;;;;;4996407;28;20492;-74
2023/09/30 02:30:35;;;;;;;18.60;8.00;;;11.30;99.90;;;;;;4941213;28;1093213;-74
2023/09/30 02:33:01;;;;;;;17.65;7.75;;;11.30;99.90;;;;;;4985636;28;20092;-74
2023/09/30 02:35:26;;;;;;;18.25;7.55;;;11.30;99.90;;;;;;5004826;28;20034;-74
2023/09/30 02:37:52;;;;;;;21.48;7.80;;;11.30;99.90;;;;;;4980590;28;20097;-74
2023/09/30 02:40:19;;;;;;;20.40;8.15;;;11.30;99.90;;;;;;4994283;28;20042;-74
2023/09/30 02:42:46;;;;;;;18.05;7.82;;;11.30;99.90;;;;;;4997936;28;20042;-74
2023/09/30 02:45:12;;;;;;;14.32;7.35;;;11.30;99.90;;;;;;5003683;28;20042;-73
2023/09/30 02:47:39;;;;;;;26.13;8.25;;;11.30;99.90;;;;;;5003421;28;20046;-73
2023/09/30 02:50:08;;;;;;;19.92;8.18;;;11.30;99.90;;;;;;5004806;28;20037;-73
2023/09/30 02:52:34;;;;;;;20.65;8.25;;;11.20;99.90;;;;;;4988503;28;20124;-73
2023/09/30 02:55:00;;;;;;;28.38;9.90;;;11.30;99.90;;;;;;4995211;28;20042;-74
2023/09/30 02:57:27;;;;;;;23.85;9.00;;;11.30;99.90;;;;;;4952223;28;20509;-73
2023/09/30 02:59:54;;;;;;;18.98;8.30;;;11.30;99.90;;;;;;4988308;28;20171;-73
2023/09/30 03:02:21;;;;;;;15.13;8.45;;;11.30;99.90;;;;;;4981868;28;20034;-74
2023/09/30 03:04:47;;;;;;;20.38;8.80;;;11.30;99.90;;;;;;4975785;28;20100;-74
2023/09/30 03:07:20;;;;;;;19.25;8.65;;;11.30;99.90;;;;;;4987493;28;20041;-74
2023/09/30 03:09:46;;;;;;;18.95;8.32;;;11.20;99.90;;;;;;4999856;28;20520;-74
2023/09/30 03:12:13;;;;;;;26.98;8.48;;;11.20;99.90;;;;;;4984880;28;20034;-73
2023/09/30 03:14:40;;;;;;;19.77;8.85;;;11.20;99.90;;;;;;4989641;28;20137;-74
2023/09/30 03:17:11;;;;;;;20.10;8.82;;;11.30;99.90;;;;;;4981247;28;20129;-74
2023/09/30 03:19:37;;;;;;;21.02;8.73;;;11.30;99.90;;;;;;4993501;28;20042;-74
2023/09/30 03:22:05;;;;;;;20.55;8.15;;;11.20;99.90;;;;;;5000055;28;20519;-73
2023/09/30 03:24:31;;;;;;;18.27;8.65;;;11.20;99.90;;;;;;4979937;28;20038;-73
2023/09/30 03:26:57;;;;;;;20.10;8.75;;;11.20;99.90;;;;;;4980542;28;20049;-73
2023/09/30 03:29:23;;;;;;;23.27;9.60;;;11.20;99.90;;;;;;4968601;28;20393;-74
2023/09/30 03:31:49;;;;;;;21.65;9.45;;;11.20;99.90;;;;;;5000752;28;20062;-74
2023/09/30 03:34:16;;;;;;;20.85;9.63;;;11.20;99.90;;;;;;4976803;28;20033;-74
2023/09/30 03:36:42;;;;;;;21.95;10.07;;;11.20;99.90;;;;;;4978670;28;20038;-74
2023/09/30 03:39:08;;;;;;;20.20;9.38;;;11.20;99.90;;;;;;4983320;28;20042;-74
2023/09/30 03:41:37;;;;;;;21.48;9.32;;;11.20;99.90;;;;;;4976554;28;20503;-73
2023/09/30 03:44:03;;;;;;;23.25;9.07;;;11.20;99.90;;;;;;5002434;28;20030;-73
2023/09/30 03:46:29;;;;;;;20.08;9.43;;;11.20;99.90;;;;;;4976347;28;20129;-73
2023/09/30 03:48:55;;;;;;;17.17;9.27;;;11.20;99.90;;;;;;4970782;28;20496;-74
2023/09/30 03:51:24;;;;;;;20.42;8.85;;;11.20;99.90;;;;;;4996982;28;20093;-74
2023/09/30 03:53:51;;;;;;;24.40;9.10;;;11.20;99.90;;;;;;4983657;28;20524;-73
2023/09/30 03:56:18;;;;;;;23.23;9.73;;;11.20;99.90;;;;;;4998284;28;20053;-73
2023/09/30 03:58:44;;;;;;;22.77;9.00;;;11.20;99.90;;;;;;4979817;28;20038;-73
2023/09/30 04:01:13;;;;;;;20.80;8.85;;;11.10;99.90;;;;;;4996753;28;20046;-74
2023/09/30 04:03:39;;;;;;;16.20;7.93;;;11.10;99.90;;;;;;4985669;28;20116;-73
2023/09/30 04:06:09;;;;;;;24.83;9.60;;;11.10;99.90;;;;;;5000105;28;20046;-73
2023/09/30 04:08:35;;;;;;;25.48;10.23;;;11.10;99.90;;;;;;4987554;28;20034;-73
2023/09/30 04:11:03;;;;;;;20.42;8.40;;;11.10;99.90;;;;;;4981447;28;20045;-73
2023/09/30 04:13:29;;;;;;;21.40;9.20;;;11.10;99.90;;;;;;5004280;28;20049;-73
2023/09/30 04:15:56;;;;;;;17.50;8.73;;;11.10;99.90;;;;;;5001005;28;20070;-73
2023/09/30 04:18:22;;;;;;;19.63;8.93;;;11.10;99.90;;;;;;4997723;28;20059;-74
2023/09/30 04:20:48;;;;;;;23.27;8.82;;;11.10;99.90;;;;;;4980170;28;20042;-73
2023/09/30 04:23:15;;;;;;;17.83;8.63;;;11.10;99.90;;;;;;4996487;28;20397;-73
2023/09/30 04:25:40;;;;;;;16.77;8.25;;;11.20;99.90;;;;;;5003491;28;20034;-73
2023/09/30 04:28:08;;;;;;;20.83;9.05;;;11.20;99.90;;;;;;5000047;28;20049;-73
2023/09/30 04:30:34;;;;;;;18.02;9.05;;;11.20;99.90;;;;;;4974458;28;20042;-74
2023/09/30 04:33:00;;;;;;;17.60;8.57;;;11.20;99.90;;;;;;4989860;28;20049;-73
2023/09/30 04:35:26;;;;;;;20.48;8.73;;;11.20;99.90;;;;;;4980043;28;20041;-74
2023/09/30 04:37:52;;;;;;;20.20;8.80;;;11.20;99.90;;;;;;4976136;28;20409;-73
2023/09/30 04:40:21;;;;;;;25.13;9.10;;;11.20;99.90;;;;;;4998370;28;20046;-74
2023/09/30 04:42:48;;;;;;;20.10;9.35;;;11.20;99.90;;;;;;4986223;28;20121;-73
2023/09/30 04:45:16;;;;;;;18.35;8.85;;;11.30;99.90;;;;;;4998077;28;20042;-74
2023/09/30 04:47:44;;;;;;;20.38;9.52;;;11.30;99.90;;;;;;4999184;28;20081;-74
2023/09/30 04:50:11;;;;;;;19.23;9.05;;;11.30;99.90;;;;;;4995527;28;20066;-74
2023/09/30 04:52:38;;;;;;;17.02;8.50;;;11.30;99.90;;;;;;4992882;28;20138;-74
2023/09/30 04:55:04;;;;;;;19.95;9.68;;;11.30;99.90;;;;;;4982084;28;20046;-73
2023/09/30 04:57:31;;;;;;;22.02;9.98;;;11.30;99.90;;;;;;4987419;28;20048;-73
2023/09/30 04:59:57;;;;;;;21.75;8.85;;;11.30;99.90;;;;;;4994245;28;20587;-73
2023/09/30 05:02:27;;;;;;;17.30;8.93;;;11.30;99.90;;;;;;4998673;28;20092;-73
2023/09/30 05:04:53;;;;;;;23.27;9.60;;;11.30;99.90;;;;;;4985110;28;20511;-73
2023/09/30 05:07:22;;;;;;;16.85;9.38;;;11.30;99.90;;;;;;4984060;28;20038;-73
2023/09/30 05:09:48;;;;;;;16.35;9.02;;;11.30;99.90;;;;;;4988753;28;20413;-73
2023/09/30 05:12:16;;;;;;;19.75;10.20;;;11.30;99.90;;;;;;4987450;28;20042;-74
2023/09/30 05:14:42;;;;;;;18.02;10.20;;;11.20;99.90;;;;;;4997394;28;20505;-74
2023/09/30 05:17:08;;;;;;;20.92;10.32;;;11.30;99.90;;;;;;4966789;28;20096;-74
2023/09/30 05:19:34;;;;;;;14.38;9.45;;;11.20;99.90;;;;;;4997890;28;20038;-73
2023/09/30 05:22:00;;;;;;;19.90;10.73;;;11.20;99.90;;;;;;4993009;28;20456;-73
2023/09/30 05:24:27;;;;;;;19.23;10.27;;;11.20;99.90;;;;;;4965501;28;20096;-73
2023/09/30 05:26:53;;;;;;;22.35;10.95;;;11.20;99.90;;;;;;5004804;28;20046;-73
2023/09/30 05:29:20;;;;;;;20.58;10.30;;;11.20;99.90;;;;;;4986737;28;20128;-73
2023/09/30 05:31:46;;;;;;;20.45;10.43;;;11.10;99.90;;;;;;4968836;28;20051;-73
2023/09/30 05:34:12;;;;;;;22.15;10.52;;;11.10;99.90;;;;;;4952297;28;20049;-73
2023/09/30 05:36:39;;;;;;;21.77;10.55;;;11.10;99.90;;;;;;4971272;28;20112;-73
2023/09/30 05:39:05;;;;;;;24.70;10.48;;;11.10;99.90;;;;;;4970587;28;20042;-73
2023/09/30 05:41:33;;;;;;;23.10;10.90;;;11.10;99.90;;;;;;4988997;28;20092;-73
2023/09/30 05:43:59;;;;;;;20.88;11.27;;;11.10;99.90;;;;;;4987649;28;20042;-73
2023/09/30 05:46:27;;;;;;;21.30;10.90;;;11.10;99.90;;;;;;4990535;28;20046;-73
2023/09/30 05:48:53;;;;;;;21.45;11.25;;;11.00;99.90;;;;;;4967383;28;20077;-73
2023/09/30 05:51:18;;;;;;;19.17;11.02;;;11.00;99.90;;;;;;5000572;28;20461;-73
2023/09/30 05:53:47;;;;;;;18.98;11.02;;;11.10;99.90;;;;;;4982482;28;20104;-73
2023/09/30 05:56:14;;;;;;;21.33;10.85;;;11.10;99.90;;;;;;5001885;28;20046;-73
2023/09/30 05:58:43;;;;;;;23.83;11.80;;;11.10;99.90;;;;;;4992708;28;20045;-73
2023/09/30 06:01:12;;;;;;;21.63;11.93;;;11.00;99.90;;;;;;5001622;28;20038;-73
2023/09/30 06:03:41;;;;;;;24.25;11.60;;;11.00;99.90;;;;;;5004212;28;20066;-73
2023/09/30 06:06:12;;;;;;;22.08;11.40;;;11.10;99.90;;;;;;4988020;28;20042;-75
2023/09/30 06:08:38;;;;;;;23.60;12.23;;;11.10;99.90;;;;;;4985989;28;20047;-75
2023/09/30 06:11:04;;;;;;;22.70;12.27;;;11.10;99.90;;;;;;5003695;28;20038;-75
2023/09/30 06:13:31;;;;;;;22.15;11.90;;;11.10;99.90;;;;;;4985420;28;20079;-74
2023/09/30 06:15:58;;;;;;;21.80;12.05;;;11.10;99.90;;;;;;4999817;28;20090;-75
2023/09/30 06:18:23;;;;;;;19.40;12.15;;;11.10;99.90;;;;;;4999250;28;20592;-75
2023/09/30 06:20:50;;;;;;;22.95;12.50;;;11.10;99.90;;;;;;4986010;28;20113;-73
2023/09/30 06:23:16;;;;;;;25.55;12.18;;;11.10;99.90;;;;;;4983487;28;20042;-73
2023/09/30 06:25:42;;;;;;;20.55;12.68;;;11.10;99.90;;;;;;5003439;28;20500;-73
2023/09/30 06:28:08;;;;;;;24.70;13.40;;;11.10;99.90;;;;;;4984016;28;20042;-73
2023/09/30 06:30:34;;;;;;;21.80;12.75;;;11.10;99.90;;;;;;5001673;28;20109;-73
2023/09/30 06:33:01;;;;;;;20.00;12.52;;;11.10;99.90;;;;;;5001906;28;20185;-73
2023/09/30 06:35:28;;;;;;;21.33;12.57;;;11.20;99.90;;;;;;5007142;28;20034;-73
2023/09/30 06:37:53;;;;;;;26.08;12.52;;;11.20;99.90;;;;;;4998773;28;20045;-73
2023/09/30 06:40:19;;;;;;;21.88;12.88;;;11.20;99.90;;;;;;4984010;28;20044;-73
2023/09/30 06:42:45;;;;;;;24.67;12.55;;;11.20;99.90;;;;;;5007522;28;20038;-73
2023/09/30 06:45:12;;;;;;;20.20;13.02;;;11.20;99.90;;;;;;5004956;28;20052;-73
2023/09/30 06:47:41;;;;;;;24.13;12.18;;;11.20;99.90;;;;;;4992737;28;20042;-73
2023/09/30 06:50:16;;;;;;;23.98;13.02;;;11.30;99.90;;;;;;5005740;28;20042;-72
2023/09/30 06:52:45;;;;;;;24.13;13.35;;;11.30;99.90;;;;;;4976894;28;20040;-73
2023/09/30 06:55:13;;;;;;;18.67;12.88;;;11.40;99.90;;;;;;5009468;28;20030;-73
2023/09/30 06:57:43;;;;;;;27.30;14.05;;;11.40;99.90;;;;;;4995101;28;20038;-73
2023/09/30 07:00:11;;;;;;;20.20;12.75;;;11.40;99.90;;;;;;4993160;28;20068;-73
2023/09/30 07:02:38;;;;;;;23.35;12.68;;;11.40;99.90;;;;;;5005733;28;20505;-72
2023/09/30 07:05:14;;;;;;;22.98;13.57;;;11.40;99.90;;;;;;4991333;28;20084;-72
2023/09/30 07:07:44;;;;;;;23.33;13.63;;;11.50;99.90;;;;;;4983265;28;20042;-72
2023/09/30 07:10:11;;;;;;;23.98;14.23;;;11.50;99.90;;;;;;4984584;28;20034;-72
2023/09/30 07:12:37;;;;;;;22.73;13.68;;;11.50;99.90;;;;;;4995466;28;20038;-72
2023/09/30 07:15:04;;;;;;;25.45;14.32;;;11.60;99.90;;;;;;4956319;28;20401;-72
2023/09/30 07:17:30;;;;;;;20.85;13.48;;;11.60;99.90;;;;;;5007301;28;20053;-74
2023/09/30 07:19:56;;;;;;;23.85;13.68;;;11.60;99.90;;;;;;4975327;28;20042;-73
2023/09/30 07:22:22;;;;;;;25.63;13.30;;;11.70;99.90;;;;;;4999633;28;20034;-73
2023/09/30 07:24:48;;;;;;;22.17;13.77;;;11.80;99.90;;;;;;4989952;28;20464;-73
2023/09/30 07:27:13;;;;;;;20.25;13.25;;;11.80;99.90;;;;;;5008691;28;20038;-73
2023/09/30 07:29:39;;;;;;;25.67;12.82;;;11.90;99.90;;;;;;4993980;28;20042;-73
2023/09/30 07:32:08;;;;;;;24.15;12.70;;;12.00;99.90;;;;;;4994847;28;20050;-73
2023/09/30 07:34:34;;;;;;;21.10;12.90;;;12.00;99.90;;;;;;5006957;28;20413;-74
2023/09/30 07:36:59;;;;;;;20.38;13.38;;;12.10;99.90;;;;;;5010622;28;20042;-74
2023/09/30 07:39:25;;;;;;;21.65;13.25;;;12.20;99.90;;;;;;5010779;28;20046;-74
2023/09/30 07:41:50;;;;;;;19.25;12.52;;;12.20;99.90;;;;;;4976258;28;20073;-74
2023/09/30 07:44:16;;;;;;;21.65;13.00;;;12.30;99.90;;;;;;4976315;28;20037;-74
2023/09/30 07:46:43;;;;;;;22.83;13.80;;;12.30;99.90;;;;;;4985629;28;20129;-74
2023/09/30 07:49:10;;;;;;;17.83;12.80;;;12.40;99.90;;;;;;4995721;28;20124;-74
2023/09/30 07:51:36;;;;;;;22.08;12.98;;;12.50;99.90;;;;;;5007254;28;20536;-74
2023/09/30 07:54:02;;;;;;;22.73;12.80;;;12.50;99.90;;;;;;5010522;28;20121;-74
2023/09/30 07:56:29;;;;;;;21.30;12.43;;;12.60;99.90;;;;;;4993726;28;20049;-74
2023/09/30 07:58:54;;;;;;;21.77;11.88;;;12.70;99.90;;;;;;4977819;28;20038;-74
2023/09/30 08:01:21;;;;;;;25.95;13.27;;;12.80;99.90;;;;;;4990783;28;20099;-74
2023/09/30 08:03:47;;;;;;;19.40;12.02;;;12.90;99.90;;;;;;5007782;28;20049;-76
2023/09/30 08:06:13;;;;;;;20.27;12.55;;;13.00;99.90;;;;;;4994962;28;20092;-76
2023/09/30 08:08:39;;;;;;;21.48;10.85;;;13.10;99.90;;;;;;4986149;28;20038;-75
2023/09/30 08:11:05;;;;;;;21.55;13.85;;;13.10;99.90;;;;;;4999204;28;20044;-75
2023/09/30 08:13:34;;;;;;;20.40;11.35;;;13.20;99.90;;;;;;4999247;28;20029;-76
2023/09/30 08:16:00;;;;;;;19.45;11.75;;;13.50;99.90;;;;;;5003712;28;20049;-75
2023/09/30 08:18:26;;;;;;;18.08;11.27;;;13.70;99.90;;;;;;5000896;28;20030;-75
2023/09/30 08:20:52;;;;;;;18.40;11.23;;;13.80;99.90;;;;;;5009131;28;20088;-75
2023/09/30 08:23:18;;;;;;;19.42;11.18;;;13.90;99.90;;;;;;4994220;28;20042;-75
2023/09/30 08:25:43;;;;;;;20.05;10.77;;;14.00;99.90;;;;;;4991007;28;20116;-76
2023/09/30 08:28:09;;;;;;;19.48;11.43;;;14.00;99.90;;;;;;5004429;28;20390;-74
2023/09/30 08:30:37;;;;;;;21.33;11.15;;;14.00;99.90;;;;;;5003579;28;20489;-76
2023/09/30 08:33:07;;;;;;;17.15;12.02;;;14.00;99.90;;;;;;5002597;28;20077;-76
2023/09/30 08:35:39;;;;;;;18.40;11.52;;;14.10;99.90;;;;;;4992948;28;20076;-76
2023/09/30 08:38:05;;;;;;;17.10;11.32;;;14.30;99.90;;;;;;5006061;28;20045;-76
2023/09/30 08:40:31;;;;;;;17.38;11.57;;;14.40;99.90;;;;;;4989122;28;20103;-79
2023/09/30 08:42:57;;;;;;;16.90;10.82;;;14.50;99.90;;;;;;5005741;28;20064;-81
2023/09/30 08:45:24;;;;;;;17.67;11.13;;;14.60;99.90;;;;;;4991173;28;20034;-81
2023/09/30 08:47:50;;;;;;;16.83;10.95;;;14.70;99.90;;;;;;5009663;28;20048;-82
2023/09/30 08:50:16;;;;;;;16.77;10.70;;;14.90;99.90;;;;;;5016536;28;20038;-83
2023/09/30 08:52:44;;;;;;;18.60;10.25;;;15.00;99.90;;;;;;5023424;28;20042;-82
2023/09/30 08:55:11;;;;;;;15.50;9.93;;;15.10;99.90;;;;;;5003308;28;20042;-83
2023/09/30 08:57:41;;;;;;;18.98;10.27;;;15.20;99.90;;;;;;5023416;28;20033;-83
2023/09/30 09:00:11;;;;;;;17.77;9.85;;;15.30;99.90;;;;;;5007833;28;20048;-83
2023/09/30 09:02:38;;;;;;;18.30;10.40;;;15.40;99.90;;;;;;5001828;28;20067;-82
2023/09/30 09:05:04;;;;;;;14.48;8.55;;;15.60;99.90;;;;;;5001364;28;20050;-81
2023/09/30 09:07:30;;;;;;;15.52;8.63;;;15.70;99.90;;;;;;4980449;28;20118;-82
2023/09/30 09:10:10;;;;;;;16.23;9.43;;;15.80;99.90;;;;;;5015072;28;20033;-80
2023/09/30 09:12:40;;;;;;;16.20;9.65;;;15.90;99.90;;;;;;4993386;28;20125;-83
2023/09/30 09:15:08;;;;;;;14.98;8.60;;;16.00;99.90;;;;;;5019940;28;20039;-82
2023/09/30 09:17:44;;;;;;;15.25;9.38;;;16.10;99.90;;;;;;4982512;28;20038;-82
2023/09/30 09:20:20;;;;;;;12.60;8.88;;;16.20;99.90;;;;;;5014068;28;20053;-82
2023/09/30 09:22:47;;;;;;;17.23;8.55;;;16.40;99.90;;;;;;4993708;28;20042;-82
2023/09/30 09:25:13;;;;;;;16.58;8.77;;;16.60;99.90;;;;;;5000562;28;20042;-79
2023/09/30 09:27:39;;;;;;;15.93;8.15;;;16.70;99.90;;;;;;4989771;28;20092;-80
2023/09/30 09:30:18;;;;;;;16.73;8.20;;;16.80;99.90;;;;;;4975510;28;20034;-80
2023/09/30 09:33:07;;;;;;;14.50;8.23;;;17.10;99.90;;;;;;4988274;28;20137;-83
2023/09/30 09:35:35;;;;;;;12.15;6.90;;;17.10;99.90;;;;;;4990865;28;20046;-82
2023/09/30 09:38:07;;;;;;;13.13;7.18;;;17.20;99.90;;;;;;5005582;28;20044;-82
2023/09/30 09:40:34;;;;;;;14.48;8.23;;;17.30;99.90;;;;;;4990029;28;20045;-81
2023/09/30 09:43:04;;;;;;;12.40;7.38;;;17.40;99.90;;;;;;4992468;28;20092;-77
2023/09/30 09:45:35;;;;;;;14.63;7.55;;;17.50;99.90;;;;;;4983866;28;20042;-78
2023/09/30 09:48:01;;;;;;;15.38;8.18;;;17.50;99.90;;;;;;4994507;28;20042;-77
2023/09/30 09:50:27;;;;;;;12.52;8.45;;;17.50;99.90;;;;;;4993872;28;20034;-77
2023/09/30 09:52:55;;;;;;;15.98;8.25;;;17.40;99.90;;;;;;4995914;28;20041;-77
2023/09/30 09:55:24;;;;;;;14.05;8.65;;;17.40;99.90;;;;;;5002997;28;20038;-76
2023/09/30 09:57:50;;;;;;;12.93;7.93;;;17.50;99.90;;;;;;4993784;28;20041;-77
2023/09/30 10:00:19;;;;;;;20.35;9.10;;;17.60;99.90;;;;;;4991345;28;20038;-77
2023/09/30 10:02:48;;;;;;;14.65;7.78;;;17.70;99.90;;;;;;4989239;28;20103;-76
2023/09/30 10:05:15;;;;;;;12.32;8.00;;;17.80;99.90;;;;;;5006956;28;20038;-76
2023/09/30 10:08:03;;;;;;;14.27;8.05;;;17.80;99.90;;;;;;4996659;28;20046;-76
2023/09/30 10:10:30;;;;;;;17.30;9.63;;;17.90;99.90;;;;;;5000416;28;20065;-76
2023/09/30 10:12:56;;;;;;;13.00;7.82;;;18.00;99.90;;;;;;4987974;28;20683;-77
2023/09/30 10:15:24;;;;;;;18.35;8.60;;;18.10;99.90;;;;;;4985874;28;20034;-77
2023/09/30 10:18:04;;;;;;;12.55;8.00;;;18.20;99.90;;;;;;4988524;28;20041;-77
2023/09/30 10:20:35;;;;;;;12.45;7.82;;;18.30;99.90;;;;;;4991817;28;20117;-76
2023/09/30 10:23:33;;;;;;;12.38;7.85;;;18.40;99.90;;;;;;4974395;28;20042;-76
2023/09/30 10:26:13;;;;;;;14.32;8.73;;;18.50;99.90;;;;;;4985599;28;20100;-74
2023/09/30 10:28:48;;;;;;;16.83;8.23;;;18.60;99.90;;;;;;4996180;28;20070;-74
2023/09/30 10:31:19;;;;;;;18.23;8.80;;;18.60;99.90;;;;;;4989752;28;20132;-74
2023/09/30 10:34:00;;;;;;;16.55;8.55;;;18.60;99.90;;;;;;4992892;28;20037;-74
2023/09/30 10:36:34;;;;;;;12.88;7.57;;;18.70;99.90;;;;;;5012620;28;20128;-74
2023/09/30 10:39:01;;;;;;;14.45;7.85;;;18.80;99.90;;;;;;4995439;28;20049;-75
2023/09/30 10:41:39;;;;;;;12.07;7.55;;;18.90;99.90;;;;;;5008655;28;20092;-75
2023/09/30 10:44:25;;;;;;;12.65;7.97;;;18.90;99.90;;;;;;5008842;28;20046;-75
2023/09/30 10:46:58;;;;;;;18.50;8.38;;;19.00;99.90;;;;;;5011632;28;20050;-75
2023/09/30 10:49:23;;;;;;;;;;;19.00;99.90;;;;;;5005221;28;20037;-75
2023/09/30 10:51:54;;;;;;;12.52;7.50;;;19.00;99.90;;;;;;4986604;28;19983;-75
2023/09/30 10:54:24;;;;;;;15.68;7.10;;;19.20;99.90;;;;;;4992179;28;20037;-75
2023/09/30 10:56:50;;;;;;;12.93;6.55;;;19.30;99.90;;;;;;4995797;28;20566;-75
2023/09/30 10:59:23;;;;;;;14.35;6.82;;;19.30;99.90;;;;;;4979654;28;20081;-74
2023/09/30 11:01:50;;;;;;;16.45;6.97;;;19.30;99.90;;;;;;4990677;28;20052;-74
2023/09/30 11:04:16;;;;;;;14.10;6.47;;;19.40;99.90;;;;;;5005818;28;20053;-74
2023/09/30 11:06:42;;;;;;;12.13;6.45;;;19.60;99.90;;;;;;5008223;28;20041;-76
2023/09/30 11:09:13;;;;;;;11.65;5.72;;;19.70;99.90;;;;;;5004892;28;20049;-74
2023/09/30 11:11:48;;;;;;;9.20;4.90;;;19.80;99.90;;;;;;4984044;28;20065;-75
2023/09/30 11:14:28;;;;;;;12.60;5.40;;;19.90;99.90;;;;;;4990980;28;20040;-71
2023/09/30 11:16:56;;;;;;;13.48;5.10;;;19.90;99.90;;;;;;5003858;28;20054;-71
2023/09/30 11:19:22;;;;;;;13.27;4.57;;;20.00;99.90;;;;;;5005870;28;20058;-73
2023/09/30 11:21:54;;;;;;;10.13;4.97;;;19.90;99.90;;;;;;5000145;28;20045;-74
2023/09/30 11:24:21;;;;;;;11.30;4.68;;;19.70;99.90;;;;;;5002630;28;20034;-74
2023/09/30 11:26:47;;;;;;;9.95;4.65;;;19.60;99.90;;;;;;5004232;28;20042;-73
2023/09/30 11:29:16;;;;;;;9.13;5.13;;;19.40;99.90;;;;;;4981278;28;20362;-73
2023/09/30 11:31:47;;;;;;;11.40;5.38;;;19.30;99.90;;;;;;4996216;28;20058;-73
2023/09/30 11:34:17;;;;;;;12.35;5.18;;;19.20;99.90;;;;;;4980989;28;20081;-73
2023/09/30 11:36:53;;;;;;;10.90;4.65;;;19.20;99.90;;;;;;4994022;28;20042;-73
2023/09/30 11:39:38;;;;;;;9.93;4.03;;;19.40;99.90;;;;;;4962311;28;20042;-73
2023/09/30 11:42:19;;;;;;;12.18;3.65;;;19.70;99.90;;;;;;4984477;28;20125;-74
2023/09/30 11:44:50;;;;;;;9.13;3.40;;;19.80;99.90;;;;;;4999319;28;20493;-73
2023/09/30 11:47:16;;;;;;;8.15;3.22;;;19.80;99.90;;;;;;4987636;28;20456;-73
2023/09/30 11:49:53;;;;;;;9.32;3.28;;;19.60;99.90;;;;;;4999973;28;20489;-74
2023/09/30 11:52:27;;;;;;;6.20;3.30;;;19.40;99.90;;;;;;4983568;28;20061;-70
2023/09/30 11:54:53;;;;;;;10.23;3.17;;;19.50;99.90;;;;;;5001598;28;20038;-73
2023/09/30 11:57:19;;;;;;;8.18;3.15;;;19.50;99.90;;;;;;5002358;28;20544;-71
2023/09/30 11:59:46;;;;;;;8.52;3.22;;;19.70;99.90;;;;;;4988853;28;20129;-70
2023/09/30 12:02:16;;;;;;;8.95;3.33;;;19.70;99.90;;;;;;4983955;28;20459;-75
2023/09/30 12:04:43;;;;;;;12.50;3.55;;;19.60;99.90;;;;;;4989884;28;20069;-75
2023/09/30 12:07:09;;;;;;;8.82;3.15;;;19.50;99.90;;;;;;4961555;28;20034;-76
2023/09/30 12:09:37;;;;;;;8.63;3.05;;;19.50;99.90;;;;;;4991218;28;20456;-74
2023/09/30 12:12:03;;;;;;;9.80;3.22;;;19.50;99.90;;;;;;4967602;28;20125;-72
2023/09/30 12:14:32;;;;;;;9.20;3.13;;;19.50;99.90;;;;;;4952586;28;20089;-73
2023/09/30 12:16:58;;;;;;;8.68;2.90;;;19.60;99.90;;;;;;4974862;28;20072;-72
2023/09/30 12:19:24;;;;;;;5.65;2.70;;;19.60;99.90;;;;;;4972424;28;20409;-74
2023/09/30 12:21:50;;;;;;;6.30;2.72;;;19.70;99.90;;;;;;4985115;28;20046;-73
2023/09/30 12:24:17;;;;;;;6.50;2.95;;;19.80;99.90;;;;;;4991417;28;20093;-73
2023/09/30 12:26:50;;;;;;;6.60;2.50;;;19.90;99.90;;;;;;4975361;28;20054;-74
2023/09/30 12:29:21;;;;;;;6.00;2.63;;;19.80;99.90;;;;;;4977422;28;20038;-72
2023/09/30 12:31:52;;;;;;;7.40;2.60;;;19.60;99.90;;;;;;4981373;28;20050;-74
2023/09/30 12:34:18;;;;;;;9.50;2.85;;;19.60;99.90;;;;;;4994902;28;20453;-72
2023/09/30 12:36:44;;;;;;;7.45;3.03;;;19.60;99.90;;;;;;4990607;28;20405;-72
2023/09/30 12:39:11;;;;;;;11.45;4.38;;;19.50;99.90;;;;;;4977332;28;20422;-72